Lyman, South Carolina
Current Conditions -  °F | °C
As of 3:53 PM on Thursday 23 Oct 2014 (Local Time) from KGSP Reporting Station
Clear Clear  
Wind Chill: 72°   Ceiling: Unl
Heat Index: 72°   Visibility: 10mi
Dew Point: 36°   Wind: 3mph
Humidity: 27%   Direction: NA
Pressure: 29.99"   Gusts: NA
Location:  34.95°N, 82.13°W
Report Text: KGSP 231953Z VRB03KT 10SM CLR 22/02 A2999 RMK AO2 SLP151 T02220022
Loading
Personal Weather Stations






























Interactive Weather Map
Tropical Storm Tracking
New forecast layout! Learn more

10-Day Weather Forecast

Advertisements
Track Severe Weather on mobile